createdAt,value
2017-12-28T00:00:42.372Z,98462.00
2017-12-28T00:03:10.677Z,98464.38
2017-12-28T00:05:39.048Z,98463.50
2017-12-28T00:08:07.647Z,98465.66
2017-12-28T00:10:35.939Z,98459.52
2017-12-28T00:13:04.269Z,98461.75
2017-12-28T00:15:32.617Z,98467.58
2017-12-28T00:18:00.923Z,98462.44
2017-12-28T00:20:30.038Z,98460.26
2017-12-28T00:22:58.412Z,98459.00
2017-12-28T00:25:26.762Z,98467.52
2017-12-28T00:27:55.088Z,98458.55
2017-12-28T00:30:24.032Z,98456.20
2017-12-28T00:32:52.346Z,98453.63
2017-12-28T00:35:37.232Z,98457.09
2017-12-28T00:38:06.160Z,98460.13
2017-12-28T00:40:34.508Z,98456.80
2017-12-28T00:43:02.813Z,98458.07
2017-12-28T00:45:31.532Z,98463.13
2017-12-28T00:47:59.876Z,98460.67
2017-12-28T00:50:28.196Z,98466.97
2017-12-28T00:52:56.545Z,98467.38
2017-12-28T00:55:24.854Z,98465.09
2017-12-28T00:57:53.185Z,98466.52
2017-12-28T01:00:21.518Z,98471.34
2017-12-28T01:02:49.857Z,98469.56
2017-12-28T01:05:18.196Z,98472.28
2017-12-28T01:07:47.627Z,98474.45
2017-12-28T01:10:15.926Z,98473.67
2017-12-28T01:12:52.370Z,98469.10
2017-12-28T01:15:20.691Z,98477.61
2017-12-28T01:17:48.994Z,98469.89
2017-12-28T01:20:17.372Z,98464.62
2017-12-28T01:22:45.748Z,98467.66
2017-12-28T01:25:14.153Z,98470.02
2017-12-28T01:27:42.863Z,98469.19
2017-12-28T01:30:11.256Z,98478.03
2017-12-28T01:32:40.541Z,98479.06
2017-12-28T01:35:09.026Z,98482.16
2017-12-28T01:37:37.621Z,98474.39
2017-12-28T01:40:06.169Z,98474.77
2017-12-28T01:42:34.664Z,98469.48
2017-12-28T01:45:03.223Z,98470.82
2017-12-28T01:47:31.642Z,98464.45
2017-12-28T01:50:01.111Z,98470.55
2017-12-28T01:52:29.518Z,98471.66
2017-12-28T01:54:58.014Z,98469.02
2017-12-28T01:57:26.489Z,98474.02
2017-12-28T01:59:54.965Z,98478.14
2017-12-28T02:02:23.422Z,98482.47
2017-12-28T02:04:51.831Z,98492.97
2017-12-28T02:07:20.178Z,98484.02
2017-12-28T02:09:48.548Z,98493.81
2017-12-28T02:12:17.275Z,98493.97
2017-12-28T02:14:45.656Z,98489.38
2017-12-28T02:17:14.133Z,98496.50
2017-12-28T02:19:42.542Z,98485.44
2017-12-28T02:22:11.774Z,98482.39
2017-12-28T02:24:40.190Z,98490.48
2017-12-28T02:27:08.672Z,98492.23
2017-12-28T02:29:37.380Z,98494.23
2017-12-28T02:32:06.486Z,98491.80
2017-12-28T02:34:35.859Z,98494.36
2017-12-28T02:37:04.164Z,98489.12
2017-12-28T02:39:33.224Z,98483.41
2017-12-28T02:42:01.640Z,98484.96
2017-12-28T02:44:30.834Z,98489.48
2017-12-28T02:46:59.917Z,98492.14
2017-12-28T02:49:28.277Z,98495.80
2017-12-28T02:51:56.592Z,98503.46
2017-12-28T02:54:24.916Z,98492.28
2017-12-28T02:56:53.772Z,98493.28
2017-12-28T02:59:22.102Z,98481.42
2017-12-28T03:01:50.406Z,98490.58
2017-12-28T03:04:19.515Z,98489.51
2017-12-28T03:06:48.612Z,98493.35
2017-12-28T03:09:16.951Z,98500.88
2017-12-28T03:11:45.331Z,98500.19
2017-12-28T03:14:13.656Z,98507.34
2017-12-28T03:16:42.004Z,98512.75
2017-12-28T03:19:10.691Z,98502.41
2017-12-28T03:21:39.009Z,98496.95
2017-12-28T03:24:07.361Z,98492.77
2017-12-28T03:26:36.490Z,98501.61
2017-12-28T03:29:04.856Z,98502.23
2017-12-28T03:31:33.610Z,98509.01
2017-12-28T03:34:01.961Z,98509.18
2017-12-28T03:36:30.263Z,98509.94
2017-12-28T03:38:58.597Z,98507.17
2017-12-28T03:41:27.117Z,98519.79
2017-12-28T03:43:55.480Z,98520.16
2017-12-28T03:46:23.821Z,98518.35
2017-12-28T03:48:52.160Z,98519.12
2017-12-28T03:51:20.499Z,98522.00
2017-12-28T03:53:48.821Z,98527.33
2017-12-28T03:56:17.204Z,98527.85
2017-12-28T03:58:45.575Z,98534.59
2017-12-28T04:01:15.683Z,98537.77
2017-12-28T04:03:44.627Z,98540.27
2017-12-28T04:06:13.001Z,98548.84
2017-12-28T04:08:41.349Z,98552.10
2017-12-28T04:11:09.705Z,98561.03
2017-12-28T04:13:38.072Z,98565.64
2017-12-28T04:16:06.450Z,98570.77
2017-12-28T04:18:34.784Z,98569.88
2017-12-28T04:21:03.904Z,98583.30
2017-12-28T04:23:32.339Z,98582.58
2017-12-28T04:26:02.047Z,98582.29
2017-12-28T04:28:30.507Z,98584.94
2017-12-28T04:30:58.890Z,98585.45
2017-12-28T04:33:27.510Z,98591.63
2017-12-28T04:35:56.702Z,98582.22
2017-12-28T04:38:25.994Z,98596.11
2017-12-28T04:40:54.479Z,98593.80
2017-12-28T04:43:22.865Z,98585.06
2017-12-28T04:45:52.079Z,98582.20
2017-12-28T04:48:21.456Z,98583.47
2017-12-28T04:50:49.834Z,98574.63
2017-12-28T04:53:18.217Z,98587.84
2017-12-28T04:55:46.597Z,98583.97
2017-12-28T04:58:15.079Z,98591.50
2017-12-28T05:00:43.549Z,98600.28
2017-12-28T05:03:12.051Z,98611.80
2017-12-28T05:05:40.596Z,98614.95
2017-12-28T05:08:09.111Z,98622.63
2017-12-28T05:10:37.831Z,98616.05
2017-12-28T05:13:06.379Z,98625.81
2017-12-28T05:15:34.789Z,98634.94
2017-12-28T05:18:03.242Z,98642.02
2017-12-28T05:20:31.826Z,98650.27
2017-12-28T05:23:00.244Z,98651.83
2017-12-28T05:25:28.705Z,98654.70
2017-12-28T05:27:57.829Z,98663.38
2017-12-28T05:30:26.278Z,98675.26
2017-12-28T05:32:55.031Z,98681.05
2017-12-28T05:35:23.425Z,98691.33
2017-12-28T05:37:51.911Z,98690.70
2017-12-28T05:40:20.594Z,98694.12
2017-12-28T05:42:49.900Z,98705.97
2017-12-28T05:45:18.266Z,98714.05
2017-12-28T05:47:46.780Z,98727.48
2017-12-28T05:50:15.348Z,98730.49
2017-12-28T05:52:43.834Z,98734.39
2017-12-28T05:55:13.272Z,98735.91
2017-12-28T05:57:41.732Z,98752.50
2017-12-28T06:00:10.141Z,98758.58
2017-12-28T06:02:38.574Z,98760.75
2017-12-28T06:05:06.922Z,98777.29
2017-12-28T06:07:35.227Z,98783.22
2017-12-28T06:10:03.577Z,98784.52
2017-12-28T06:12:31.932Z,98806.52
2017-12-28T06:15:00.276Z,98799.50
2017-12-28T06:17:29.462Z,98802.13
2017-12-28T06:19:57.767Z,98812.84
2017-12-28T06:22:26.882Z,98819.32
2017-12-28T06:24:55.250Z,98814.30
2017-12-28T06:27:23.551Z,98811.73
2017-12-28T06:29:51.896Z,98818.76
2017-12-28T06:32:21.030Z,98827.70
2017-12-28T06:34:49.354Z,98822.83
2017-12-28T06:37:17.699Z,98823.77
2017-12-28T06:39:46.341Z,98840.89
2017-12-28T06:42:14.692Z,98833.41
2017-12-28T06:44:42.994Z,98837.20
2017-12-28T06:47:12.134Z,98850.81
2017-12-28T06:49:40.465Z,98854.28
2017-12-28T06:52:08.818Z,98863.61
2017-12-28T06:54:37.164Z,98868.72
2017-12-28T06:57:05.546Z,98876.07
2017-12-28T06:59:33.892Z,98874.00
2017-12-28T07:02:03.313Z,98877.41
2017-12-28T07:04:32.421Z,98882.62
2017-12-28T07:07:00.759Z,98890.75
2017-12-28T07:09:29.843Z,98887.08
2017-12-28T07:11:58.202Z,98899.08
2017-12-28T07:14:26.512Z,98896.66
2017-12-28T07:16:55.692Z,98905.77
2017-12-28T07:19:24.037Z,98911.05
2017-12-28T07:21:52.333Z,98915.52
2017-12-28T07:24:20.765Z,98912.55
2017-12-28T07:26:49.101Z,98915.66
2017-12-28T07:29:17.430Z,98916.92
2017-12-28T07:31:45.959Z,98922.66
2017-12-28T07:34:14.288Z,98932.31
2017-12-28T07:36:42.671Z,98930.25
2017-12-28T07:39:11.005Z,98923.94
2017-12-28T07:41:39.309Z,98931.36
2017-12-28T07:44:08.382Z,98935.37
2017-12-28T07:46:36.856Z,98942.27
2017-12-28T07:49:05.201Z,98939.25
2017-12-28T07:51:33.511Z,98944.41
2017-12-28T07:54:01.858Z,98947.52
2017-12-28T07:56:30.177Z,98955.58
2017-12-28T07:58:58.483Z,98959.45
2017-12-28T08:01:27.606Z,98957.61
2017-12-28T08:03:55.938Z,98952.71
2017-12-28T08:06:24.305Z,98953.12
2017-12-28T08:08:53.672Z,98958.77
2017-12-28T08:11:21.986Z,98959.73
2017-12-28T08:13:50.373Z,98958.92
2017-12-28T08:16:18.758Z,98957.16
2017-12-28T08:18:47.151Z,98953.78
2017-12-28T08:21:16.325Z,98942.22
2017-12-28T08:23:44.848Z,98948.28
2017-12-28T08:26:13.200Z,98947.58
2017-12-28T08:28:41.770Z,98941.94
2017-12-28T08:31:10.442Z,98949.20
2017-12-28T08:33:39.145Z,98951.50
2017-12-28T08:36:07.523Z,98952.31
2017-12-28T08:38:36.108Z,98962.94
2017-12-28T08:41:04.581Z,98975.27
2017-12-28T08:43:33.159Z,98972.14
2017-12-28T08:46:01.760Z,98971.16
2017-12-28T08:48:30.135Z,98980.09
2017-12-28T08:50:58.517Z,98973.84
2017-12-28T08:53:27.609Z,98983.38
2017-12-28T08:55:56.079Z,98983.62
2017-12-28T08:58:24.573Z,98987.14
2017-12-28T09:00:53.366Z,98995.73
2017-12-28T09:03:21.844Z,98996.75
2017-12-28T09:05:50.304Z,99001.01
2017-12-28T09:08:18.819Z,99003.53
2017-12-28T09:10:48.013Z,99015.48
2017-12-28T09:13:16.413Z,99014.59
2017-12-28T09:15:46.200Z,99013.53
2017-12-28T09:18:14.671Z,99027.45
2017-12-28T09:20:43.162Z,99030.56
2017-12-28T09:23:11.719Z,99047.84
2017-12-28T09:25:40.136Z,99054.98
2017-12-28T09:28:08.600Z,99060.78
2017-12-28T09:30:37.093Z,99066.64
2017-12-28T09:33:05.573Z,99068.70
2017-12-28T09:35:34.055Z,99076.50
2017-12-28T09:38:02.664Z,99083.95
2017-12-28T09:40:31.841Z,99090.41
2017-12-28T09:43:00.317Z,99092.33
2017-12-28T09:45:28.745Z,99086.27
2017-12-28T09:47:57.077Z,99084.22
2017-12-28T09:50:25.562Z,99087.50
2017-12-28T09:52:53.973Z,99086.00
2017-12-28T09:55:22.325Z,99082.73
2017-12-28T09:57:50.733Z,99097.91
2017-12-28T10:00:19.964Z,99099.93
2017-12-28T10:02:48.322Z,99093.84
2017-12-28T10:05:16.709Z,99101.01
2017-12-28T10:07:45.147Z,99100.45
2017-12-28T10:10:13.522Z,99113.70
2017-12-28T10:12:42.006Z,99120.02
2017-12-28T10:15:10.515Z,99123.11
2017-12-28T10:17:39.703Z,99132.49
2017-12-28T10:20:08.165Z,99141.48
2017-12-28T10:22:36.641Z,99125.70
2017-12-28T10:25:05.331Z,99135.39
2017-12-28T10:27:33.821Z,99125.83
2017-12-28T10:30:02.295Z,99139.47
2017-12-28T10:32:30.675Z,99138.98
2017-12-28T10:34:59.153Z,99136.06
2017-12-28T10:37:27.547Z,99136.19
2017-12-28T10:39:56.743Z,99137.63
2017-12-28T10:42:25.152Z,99139.05
2017-12-28T10:44:53.635Z,99140.63
2017-12-28T10:47:22.181Z,99143.96
2017-12-28T10:49:50.661Z,99156.11
2017-12-28T10:52:19.262Z,99146.97
2017-12-28T10:54:47.664Z,99145.84
2017-12-28T10:57:15.977Z,99150.52
2017-12-28T10:59:44.340Z,99150.23
2017-12-28T11:02:12.662Z,99142.73
2017-12-28T11:04:41.001Z,99155.97
2017-12-28T11:07:09.421Z,99155.87
2017-12-28T11:09:37.728Z,99154.06
2017-12-28T11:12:06.867Z,99159.82
2017-12-28T11:14:35.214Z,99175.36
2017-12-28T11:17:03.562Z,99168.02
2017-12-28T11:19:32.104Z,99169.84
2017-12-28T11:22:00.477Z,99180.54
2017-12-28T11:24:28.834Z,99182.65
2017-12-28T11:26:57.231Z,99182.19
2017-12-28T11:29:25.782Z,99181.55
2017-12-28T11:31:54.865Z,99197.61
2017-12-28T11:34:23.939Z,99193.95
2017-12-28T11:36:52.309Z,99193.41
2017-12-28T11:39:20.642Z,99197.91
2017-12-28T11:41:49.015Z,99201.25
2017-12-28T11:44:17.399Z,99202.42
2017-12-28T11:46:45.731Z,99194.33
2017-12-28T11:49:18.149Z,99189.66
2017-12-28T11:51:46.532Z,99183.50
2017-12-28T11:54:14.844Z,99184.11
2017-12-28T11:56:43.207Z,99190.30
2017-12-28T11:59:16.899Z,99190.49
2017-12-28T12:01:50.741Z,99198.23
2017-12-28T12:04:21.931Z,99188.78
2017-12-28T12:06:52.929Z,99198.98
2017-12-28T12:09:21.304Z,99200.13
2017-12-28T12:11:49.661Z,99200.66
2017-12-28T12:14:18.036Z,99195.70
2017-12-28T12:16:46.348Z,99207.90
2017-12-28T12:19:14.721Z,99201.67
2017-12-28T12:22:10.594Z,99210.25
2017-12-28T12:24:39.752Z,99206.47
2017-12-28T12:27:08.109Z,99205.31
2017-12-28T12:29:54.018Z,99207.74
2017-12-28T12:32:22.416Z,99204.41
2017-12-28T12:34:50.732Z,99203.56
2017-12-28T12:37:19.443Z,99208.45
2017-12-28T12:39:47.749Z,99209.52
2017-12-28T12:42:16.846Z,99216.37
2017-12-28T12:44:45.203Z,99206.95
2017-12-28T12:47:13.508Z,99210.72
2017-12-28T12:49:41.840Z,99205.77
2017-12-28T12:52:10.191Z,99213.34
2017-12-28T12:54:39.307Z,99219.77
2017-12-28T12:57:07.659Z,99222.13
2017-12-28T12:59:36.911Z,99231.45
2017-12-28T13:02:05.269Z,99235.76
2017-12-28T13:04:33.611Z,99232.63
2017-12-28T13:07:02.001Z,99248.26
2017-12-28T13:09:31.081Z,99230.57
2017-12-28T13:12:03.298Z,99242.25
2017-12-28T13:14:31.664Z,99250.19
2017-12-28T13:16:59.986Z,99239.52
2017-12-28T13:19:28.732Z,99241.98
2017-12-28T13:21:57.077Z,99234.27
2017-12-28T13:24:25.392Z,99244.69
2017-12-28T13:26:53.761Z,99247.70
2017-12-28T13:29:22.860Z,99259.38
2017-12-28T13:31:51.951Z,99260.55
2017-12-28T13:34:21.071Z,99268.23
2017-12-28T13:36:49.408Z,99273.18
2017-12-28T13:39:18.533Z,99269.05
2017-12-28T13:41:46.982Z,99273.95
2017-12-28T13:44:15.317Z,99277.34
2017-12-28T13:46:43.698Z,99281.58
2017-12-28T13:49:12.084Z,99285.29
2017-12-28T13:51:40.416Z,99293.69
2017-12-28T13:54:09.516Z,99294.19
2017-12-28T13:56:38.615Z,99301.00
2017-12-28T13:59:06.939Z,99307.92
2017-12-28T14:01:36.206Z,99313.39
2017-12-28T14:04:04.680Z,99313.16
2017-12-28T14:06:33.061Z,99314.45
2017-12-28T14:09:01.369Z,99315.77
2017-12-28T14:11:29.743Z,99317.66
2017-12-28T14:13:58.041Z,99315.78
2017-12-28T14:16:26.346Z,99331.19
2017-12-28T14:18:54.702Z,99335.89
2017-12-28T14:21:23.027Z,99337.07
2017-12-28T14:23:51.357Z,99348.14
2017-12-28T14:26:20.087Z,99354.74
2017-12-28T14:28:49.162Z,99355.78
2017-12-28T14:31:17.486Z,99359.10
2017-12-28T14:33:45.851Z,99355.11
2017-12-28T14:36:14.178Z,99360.87
2017-12-28T14:38:42.490Z,99368.23
2017-12-28T14:41:11.607Z,99373.33
2017-12-28T14:43:39.925Z,99374.41
2017-12-28T14:46:08.258Z,99378.56
2017-12-28T14:48:36.660Z,99380.98
2017-12-28T14:51:04.990Z,99384.11
2017-12-28T14:53:33.322Z,99380.55
2017-12-28T14:56:01.667Z,99388.05
2017-12-28T14:58:30.010Z,99386.16
2017-12-28T15:00:58.359Z,99382.72
2017-12-28T15:03:26.683Z,99390.37
2017-12-28T15:05:55.751Z,99397.22
2017-12-28T15:08:24.829Z,99397.38
2017-12-28T15:10:53.477Z,99400.09
2017-12-28T15:13:21.813Z,99405.25
2017-12-28T15:15:50.142Z,99403.42
2017-12-28T15:18:18.516Z,99403.42
2017-12-28T15:20:46.840Z,99399.87
2017-12-28T15:23:15.164Z,99398.42
2017-12-28T15:25:44.270Z,99415.03
2017-12-28T15:28:12.600Z,99416.80
2017-12-28T15:30:40.918Z,99414.64
2017-12-28T15:33:09.596Z,99421.33
2017-12-28T15:35:38.966Z,99421.83
2017-12-28T15:38:07.524Z,99419.61
2017-12-28T15:40:35.870Z,99428.02
2017-12-28T15:43:04.215Z,99424.58
2017-12-28T15:45:32.539Z,99429.89
2017-12-28T15:48:00.886Z,99429.08
2017-12-28T15:50:30.265Z,99432.95
2017-12-28T15:52:58.633Z,99440.81
2017-12-28T15:55:27.570Z,99430.60
2017-12-28T15:57:55.942Z,99443.02
2017-12-28T16:00:25.019Z,99437.87
2017-12-28T16:02:53.372Z,99447.67
2017-12-28T16:05:21.676Z,99454.78
2017-12-28T16:07:49.993Z,99455.23
2017-12-28T16:10:18.354Z,99459.14
2017-12-28T16:12:47.472Z,99465.64
2017-12-28T16:15:15.775Z,99465.98
2017-12-28T16:17:44.229Z,99461.00
2017-12-28T16:20:12.571Z,99471.46
2017-12-28T16:22:40.871Z,99478.56
2017-12-28T16:25:09.249Z,99479.64
2017-12-28T16:27:38.341Z,99486.86
2017-12-28T16:30:07.455Z,99483.74
2017-12-28T16:32:35.823Z,99481.97
2017-12-28T16:35:04.955Z,99492.23
2017-12-28T16:37:33.713Z,99486.62
2017-12-28T16:40:03.151Z,99488.98
2017-12-28T16:42:31.544Z,99486.44
2017-12-28T16:44:59.887Z,99487.75
2017-12-28T16:47:28.266Z,99483.23
2017-12-28T16:49:56.569Z,99490.20
2017-12-28T16:52:24.899Z,99499.23
2017-12-28T16:54:54.044Z,99501.33
2017-12-28T16:57:22.367Z,99500.61
2017-12-28T16:59:50.695Z,99500.34
2017-12-28T17:02:19.420Z,99501.36
2017-12-28T17:04:47.745Z,99504.63
2017-12-28T17:07:16.069Z,99505.67
2017-12-28T17:09:44.786Z,99506.27
2017-12-28T17:12:13.118Z,99510.94
2017-12-28T17:14:41.470Z,99514.13
2017-12-28T17:17:09.844Z,99521.37
2017-12-28T17:19:38.160Z,99512.71
2017-12-28T17:22:06.504Z,99521.11
2017-12-28T17:24:35.174Z,99521.27
2017-12-28T17:27:04.243Z,99526.83
2017-12-28T17:29:32.554Z,99538.84
2017-12-28T17:32:00.907Z,99530.33
2017-12-28T17:34:29.206Z,99531.95
2017-12-28T17:36:58.296Z,99538.59
2017-12-28T17:39:27.413Z,99540.98
2017-12-28T17:41:55.736Z,99556.67
2017-12-28T17:44:24.121Z,99545.95
2017-12-28T17:46:52.808Z,99551.91
2017-12-28T17:49:21.132Z,99539.78
2017-12-28T17:51:49.473Z,99553.71
2017-12-28T17:54:17.854Z,99558.77
2017-12-28T17:56:46.162Z,99554.65
2017-12-28T17:59:15.264Z,99560.89
2017-12-28T18:01:43.626Z,99560.71
2017-12-28T18:04:11.997Z,99572.83
2017-12-28T18:06:41.121Z,99566.16
2017-12-28T18:09:09.577Z,99566.49
2017-12-28T18:11:37.908Z,99578.54
2017-12-28T18:14:06.273Z,99571.19
2017-12-28T18:16:34.651Z,99575.46
2017-12-28T18:19:02.962Z,99586.66
2017-12-28T18:21:31.308Z,99589.66
2017-12-28T18:23:59.667Z,99588.56
2017-12-28T18:26:28.819Z,99593.77
2017-12-28T18:28:57.174Z,99593.59
2017-12-28T18:31:25.717Z,99593.17
2017-12-28T18:33:54.801Z,99601.27
2017-12-28T18:36:24.032Z,99604.49
2017-12-28T18:38:52.395Z,99602.47
2017-12-28T18:41:21.502Z,99608.50
2017-12-28T18:43:49.849Z,99615.66
2017-12-28T18:46:18.214Z,99614.98
2017-12-28T18:48:46.561Z,99628.47
2017-12-28T18:51:14.886Z,99638.52
2017-12-28T18:53:43.569Z,99642.45
2017-12-28T18:56:11.888Z,99651.48
2017-12-28T18:58:40.226Z,99654.68
2017-12-28T19:01:08.601Z,99650.94
2017-12-28T19:03:36.935Z,99660.26
2017-12-28T19:06:05.297Z,99667.21
2017-12-28T19:08:33.663Z,99652.39
2017-12-28T19:11:02.777Z,99663.45
2017-12-28T19:13:31.126Z,99644.22
2017-12-28T19:15:59.742Z,99647.71
2017-12-28T19:18:28.100Z,99649.47
2017-12-28T19:20:57.187Z,99652.31
2017-12-28T19:23:25.544Z,99650.63
2017-12-28T19:25:53.866Z,99643.91
2017-12-28T19:28:22.193Z,99642.67
2017-12-28T19:30:50.549Z,99654.16
2017-12-28T19:33:18.870Z,99660.80
2017-12-28T19:35:47.196Z,99660.58
2017-12-28T19:38:15.748Z,99663.05
2017-12-28T19:40:44.878Z,99670.41
2017-12-28T19:43:13.217Z,99668.42
2017-12-28T19:45:41.623Z,99669.17
2017-12-28T19:48:09.959Z,99684.45
2017-12-28T19:50:38.282Z,99689.18
2017-12-28T19:53:06.645Z,99682.22
2017-12-28T19:55:35.775Z,99689.02
2017-12-28T19:58:04.115Z,99688.47
2017-12-28T20:00:32.956Z,99688.16
2017-12-28T20:03:01.275Z,99695.27
2017-12-28T20:05:30.369Z,99693.94
2017-12-28T20:07:58.758Z,99697.32
2017-12-28T20:10:27.904Z,99699.10
2017-12-28T20:12:56.269Z,99702.80
2017-12-28T20:15:24.704Z,99708.88
2017-12-28T20:17:53.099Z,99714.94
2017-12-28T20:20:22.197Z,99712.05
2017-12-28T20:22:51.004Z,99721.28
2017-12-28T20:25:19.361Z,99711.37
2017-12-28T20:27:48.480Z,99707.88
2017-12-28T20:30:16.865Z,99708.46
2017-12-28T20:32:45.210Z,99714.23
2017-12-28T20:35:14.374Z,99708.80
2017-12-28T20:37:42.734Z,99710.61
2017-12-28T20:40:11.115Z,99706.67
2017-12-28T20:42:39.458Z,99719.05
2017-12-28T20:45:07.925Z,99709.73
2017-12-28T20:47:36.278Z,99718.44
2017-12-28T20:50:05.392Z,99712.09
2017-12-28T20:52:33.746Z,99719.26
2017-12-28T20:55:02.098Z,99718.80
2017-12-28T20:57:30.483Z,99722.61
2017-12-28T20:59:58.836Z,99730.77
2017-12-28T21:02:27.202Z,99735.97
2017-12-28T21:04:56.312Z,99728.18
2017-12-28T21:07:25.802Z,99726.45
2017-12-28T21:09:54.912Z,99734.98
2017-12-28T21:12:23.232Z,99739.03
2017-12-28T21:14:51.573Z,99738.58
2017-12-28T21:17:19.894Z,99736.13
2017-12-28T21:19:48.226Z,99739.98
2017-12-28T21:22:17.322Z,99732.29
2017-12-28T21:24:46.433Z,99729.97
2017-12-28T21:27:14.751Z,99734.80
2017-12-28T21:29:43.723Z,99732.63
2017-12-28T21:32:12.100Z,99733.50
2017-12-28T21:34:40.422Z,99732.61
2017-12-28T21:37:08.792Z,99744.30
2017-12-28T21:39:38.642Z,99751.06
2017-12-28T21:42:06.973Z,99763.33
2017-12-28T21:44:36.105Z,99756.60
2017-12-28T21:47:05.193Z,99756.24
2017-12-28T21:49:34.304Z,99763.94
2017-12-28T21:52:02.736Z,99771.09
2017-12-28T21:54:31.046Z,99767.73
2017-12-28T21:57:00.142Z,99779.74
2017-12-28T21:59:28.492Z,99785.12
2017-12-28T22:01:56.838Z,99783.09
2017-12-28T22:04:25.168Z,99786.14
2017-12-28T22:06:53.551Z,99788.02
2017-12-28T22:09:21.892Z,99805.38
2017-12-28T22:11:50.223Z,99812.41
2017-12-28T22:14:19.970Z,99814.62
2017-12-28T22:16:48.307Z,99822.47
2017-12-28T22:19:16.633Z,99831.98
2017-12-28T22:21:44.977Z,99835.83
2017-12-28T22:24:14.046Z,99837.57
2017-12-28T22:26:42.385Z,99845.20
2017-12-28T22:29:10.755Z,99841.55
2017-12-28T22:31:39.109Z,99843.63
2017-12-28T22:34:08.206Z,99837.02
2017-12-28T22:36:36.618Z,99845.31
2017-12-28T22:39:04.955Z,99849.19
2017-12-28T22:41:34.095Z,99850.60
2017-12-28T22:44:02.433Z,99843.81
2017-12-28T22:46:30.789Z,99848.63
2017-12-28T22:48:59.137Z,99852.38
2017-12-28T22:51:27.500Z,99855.75
2017-12-28T22:53:55.845Z,99857.27
2017-12-28T22:56:25.007Z,99866.78
2017-12-28T22:58:53.631Z,99862.78
2017-12-28T23:01:22.755Z,99867.12
2017-12-28T23:03:52.082Z,99860.27
2017-12-28T23:06:20.505Z,99871.61
2017-12-28T23:08:48.825Z,99860.94
2017-12-28T23:11:17.149Z,99860.17
2017-12-28T23:13:45.506Z,99863.25
2017-12-28T23:16:13.826Z,99875.08
2017-12-28T23:18:42.894Z,99870.41
2017-12-28T23:21:14.497Z,99870.94
2017-12-28T23:23:42.835Z,99871.53
2017-12-28T23:26:11.145Z,99874.64
2017-12-28T23:28:39.494Z,99889.56
2017-12-28T23:31:08.597Z,99888.66
2017-12-28T23:33:37.675Z,99889.47
2017-12-28T23:36:06.023Z,99892.59
2017-12-28T23:38:34.330Z,99885.56
2017-12-28T23:41:02.648Z,99894.41
2017-12-28T23:43:31.201Z,99892.66
2017-12-28T23:45:59.508Z,99892.36
2017-12-28T23:48:27.812Z,99892.02
2017-12-28T23:50:56.191Z,99895.23
2017-12-28T23:53:24.493Z,99895.14
2017-12-28T23:55:52.819Z,99900.61
2017-12-28T23:58:21.172Z,99906.07
